createdAt,value
2018-04-11T00:00:35.116Z,1004.34
2018-04-11T00:01:35.138Z,1004.35
2018-04-11T00:02:35.161Z,1004.36
2018-04-11T00:03:35.184Z,1004.34
2018-04-11T00:04:35.205Z,1004.34
2018-04-11T00:05:35.228Z,1004.34
2018-04-11T00:06:35.250Z,1004.33
2018-04-11T00:08:35.294Z,1004.34
2018-04-11T00:09:35.317Z,1004.35
2018-04-11T00:10:35.340Z,1004.36
2018-04-11T00:11:35.362Z,1004.4
2018-04-11T00:12:35.384Z,1004.44
2018-04-11T00:13:35.407Z,1004.45
2018-04-11T00:14:35.430Z,1004.47
2018-04-11T00:15:35.452Z,1004.43
2018-04-11T00:16:35.481Z,1004.45
2018-04-11T00:17:35.497Z,1004.43
2018-04-11T00:18:35.519Z,1004.43
2018-04-11T00:19:35.542Z,1004.41
2018-04-11T00:20:35.565Z,1004.48
2018-04-11T00:21:35.588Z,1004.49
2018-04-11T00:22:35.610Z,1004.46
2018-04-11T00:24:35.655Z,1004.5
2018-04-11T00:25:35.679Z,1004.51
2018-04-11T00:26:35.701Z,1004.49
2018-04-11T00:27:35.725Z,1004.51
2018-04-11T00:28:35.744Z,1004.49
2018-04-11T00:29:35.764Z,1004.48
2018-04-11T00:30:35.785Z,1004.5
2018-04-11T00:31:35.806Z,1004.48
2018-04-11T00:32:35.828Z,1004.55
2018-04-11T00:33:35.850Z,1004.58
2018-04-11T00:34:35.875Z,1004.54
2018-04-11T00:35:35.894Z,1004.55
2018-04-11T00:36:35.915Z,1004.59
2018-04-11T00:37:35.937Z,1004.61
2018-04-11T00:39:35.981Z,1004.58
2018-04-11T00:40:36.002Z,1004.6
2018-04-11T00:41:36.025Z,1004.61
2018-04-11T00:42:36.047Z,1004.68
2018-04-11T00:43:36.070Z,1004.69
2018-04-11T00:44:36.092Z,1004.75
2018-04-11T00:45:36.113Z,1004.74
2018-04-11T00:46:36.136Z,1004.75
2018-04-11T00:47:36.158Z,1004.73
2018-04-11T00:48:36.183Z,1004.75
2018-04-11T00:49:36.202Z,1004.73
2018-04-11T00:50:36.224Z,1004.76
2018-04-11T00:51:36.255Z,1004.75
2018-04-11T00:52:36.268Z,1004.73
2018-04-11T00:53:36.294Z,1004.7
2018-04-11T00:54:36.314Z,1004.7
2018-04-11T00:55:36.334Z,1004.71
2018-04-11T00:56:36.355Z,1004.7
2018-04-11T00:57:36.381Z,1004.71
2018-04-11T00:58:36.397Z,1004.7
2018-04-11T00:59:36.421Z,1004.74
2018-04-11T01:00:36.442Z,1004.76
2018-04-11T01:01:36.464Z,1004.73
2018-04-11T01:02:36.485Z,1004.73
2018-04-11T01:03:36.509Z,1004.76
2018-04-11T01:04:36.531Z,1004.71
2018-04-11T01:05:36.552Z,1004.76
2018-04-11T01:06:36.575Z,1004.76
2018-04-11T01:07:36.594Z,1004.72
2018-04-11T01:08:36.616Z,1004.73
2018-04-11T01:09:36.637Z,1004.72
2018-04-11T01:11:36.686Z,1004.7
2018-04-11T01:12:36.707Z,1004.69
2018-04-11T01:13:36.725Z,1004.66
2018-04-11T01:14:36.747Z,1004.67
2018-04-11T01:15:36.769Z,1004.65
2018-04-11T01:16:36.793Z,1004.68
2018-04-11T01:17:36.813Z,1004.66
2018-04-11T01:18:36.835Z,1004.66
2018-04-11T01:19:36.857Z,1004.63
2018-04-11T01:20:36.879Z,1004.63
2018-04-11T01:21:36.901Z,1004.64
2018-04-11T01:22:36.924Z,1004.67
2018-04-11T01:23:36.946Z,1004.66
2018-04-11T01:24:36.967Z,1004.58
2018-04-11T01:25:36.989Z,1004.64
2018-04-11T01:27:37.033Z,1004.64
2018-04-11T01:28:37.055Z,1004.69
2018-04-11T01:29:37.077Z,1004.72
2018-04-11T01:30:37.099Z,1004.71
2018-04-11T01:31:37.120Z,1004.74
2018-04-11T01:32:37.142Z,1004.73
2018-04-11T01:33:37.165Z,1004.68
2018-04-11T01:34:37.187Z,1004.66
2018-04-11T01:35:37.208Z,1004.67
2018-04-11T01:36:37.230Z,1004.66
2018-04-11T01:37:37.252Z,1004.69
2018-04-11T01:38:37.273Z,1004.66
2018-04-11T01:39:37.295Z,1004.7
2018-04-11T01:40:37.317Z,1004.72
2018-04-11T01:41:37.338Z,1004.72
2018-04-11T01:43:37.382Z,1004.71
2018-04-11T01:44:37.406Z,1004.7
2018-04-11T01:45:37.426Z,1004.68
2018-04-11T01:46:37.448Z,1004.71
2018-04-11T01:47:37.469Z,1004.75
2018-04-11T01:48:37.492Z,1004.74
2018-04-11T01:49:37.514Z,1004.74
2018-04-11T01:50:37.536Z,1004.67
2018-04-11T01:51:37.558Z,1004.69
2018-04-11T01:52:37.583Z,1004.67
2018-04-11T01:53:37.601Z,1004.72
2018-04-11T01:54:37.623Z,1004.75
2018-04-11T01:55:37.645Z,1004.66
2018-04-11T01:56:37.668Z,1004.71
2018-04-11T01:57:37.690Z,1004.7
2018-04-11T01:59:37.733Z,1004.74
2018-04-11T02:00:37.756Z,1004.7
2018-04-11T02:01:37.777Z,1004.74
2018-04-11T02:02:37.802Z,1004.74
2018-04-11T02:03:37.821Z,1004.74
2018-04-11T02:04:37.842Z,1004.75
2018-04-11T02:05:37.865Z,1004.73
2018-04-11T02:06:37.886Z,1004.76
2018-04-11T02:07:37.908Z,1004.78
2018-04-11T02:08:37.930Z,1004.76
2018-04-11T02:09:37.959Z,1004.76
2018-04-11T02:10:37.974Z,1004.72
2018-04-11T02:11:37.995Z,1004.67
2018-04-11T02:12:38.018Z,1004.7
2018-04-11T02:14:38.064Z,1004.69
2018-04-11T02:15:38.081Z,1004.68
2018-04-11T02:16:38.106Z,1004.65
2018-04-11T02:17:38.126Z,1004.69
2018-04-11T02:18:38.148Z,1004.73
2018-04-11T02:19:38.169Z,1004.71
2018-04-11T02:20:38.190Z,1004.63
2018-04-11T02:21:38.212Z,1004.68
2018-04-11T02:22:38.233Z,1004.72
2018-04-11T02:23:38.309Z,1004.72
2018-04-11T02:24:38.277Z,1004.77
2018-04-11T02:25:38.299Z,1004.77
2018-04-11T02:26:38.320Z,1004.76
2018-04-11T02:27:38.342Z,1004.73
2018-04-11T02:28:38.364Z,1004.72
2018-04-11T02:29:38.386Z,1004.72
2018-04-11T02:30:38.407Z,1004.72
2018-04-11T02:31:38.441Z,1004.7
2018-04-11T02:32:38.451Z,1004.69
2018-04-11T02:33:38.472Z,1004.68
2018-04-11T02:34:38.495Z,1004.68
2018-04-11T02:35:38.516Z,1004.69
2018-04-11T02:36:38.538Z,1004.7
2018-04-11T02:37:38.559Z,1004.66
2018-04-11T02:38:38.581Z,1004.64
2018-04-11T02:39:38.603Z,1004.6
2018-04-11T02:40:38.625Z,1004.61
2018-04-11T02:41:38.646Z,1004.61
2018-04-11T02:42:38.667Z,1004.59
2018-04-11T02:43:38.689Z,1004.65
2018-04-11T02:44:38.711Z,1004.64
2018-04-11T02:46:38.754Z,1004.63
2018-04-11T02:47:38.776Z,1004.66
2018-04-11T02:48:38.796Z,1004.62
2018-04-11T02:49:38.818Z,1004.69
2018-04-11T02:50:38.839Z,1004.71
2018-04-11T02:51:38.860Z,1004.71
2018-04-11T02:52:38.881Z,1004.74
2018-04-11T02:53:38.903Z,1004.72
2018-04-11T02:54:38.927Z,1004.76
2018-04-11T02:55:38.946Z,1004.77
2018-04-11T02:56:38.968Z,1004.84
2018-04-11T02:57:38.989Z,1004.81
2018-04-11T02:58:39.010Z,1004.8
2018-04-11T02:59:39.034Z,1004.82
2018-04-11T03:00:39.060Z,1004.78
2018-04-11T03:02:39.100Z,1004.69
2018-04-11T03:03:39.119Z,1004.73
2018-04-11T03:04:39.139Z,1004.69
2018-04-11T03:05:39.161Z,1004.73
2018-04-11T03:06:39.183Z,1004.71
2018-04-11T03:07:39.202Z,1004.74
2018-04-11T03:08:39.224Z,1004.72
2018-04-11T03:09:39.246Z,1004.75
2018-04-11T03:10:39.268Z,1004.69
2018-04-11T03:11:39.288Z,1004.72
2018-04-11T03:12:39.311Z,1004.74
2018-04-11T03:13:39.332Z,1004.69
2018-04-11T03:14:39.352Z,1004.72
2018-04-11T03:15:39.374Z,1004.76
2018-04-11T03:16:39.395Z,1004.68
2018-04-11T03:18:39.437Z,1004.67
2018-04-11T03:19:39.463Z,1004.67
2018-04-11T03:20:39.480Z,1004.62
2018-04-11T03:21:39.500Z,1004.62
2018-04-11T03:22:39.522Z,1004.68
2018-04-11T03:23:39.542Z,1004.7
2018-04-11T03:24:39.564Z,1004.7
2018-04-11T03:25:39.584Z,1004.67
2018-04-11T03:26:39.606Z,1004.61
2018-04-11T03:27:39.627Z,1004.66
2018-04-11T03:28:39.647Z,1004.69
2018-04-11T03:29:39.668Z,1004.68
2018-04-11T03:30:39.791Z,1004.69
2018-04-11T03:31:39.713Z,1004.72
2018-04-11T03:32:39.732Z,1004.7
2018-04-11T03:34:39.776Z,1004.63
2018-04-11T03:35:39.796Z,1004.66
2018-04-11T03:36:39.817Z,1004.64
2018-04-11T03:37:39.839Z,1004.64
2018-04-11T03:38:39.861Z,1004.65
2018-04-11T03:39:39.880Z,1004.6
2018-04-11T03:40:39.902Z,1004.64
2018-04-11T03:41:39.930Z,1004.55
2018-04-11T03:42:39.945Z,1004.64
2018-04-11T03:43:39.966Z,1004.59
2018-04-11T03:44:40.008Z,1004.68
2018-04-11T03:45:40.009Z,1004.64
2018-04-11T03:46:40.030Z,1004.68
2018-04-11T03:47:40.053Z,1004.69
2018-04-11T03:49:40.094Z,1004.73
2018-04-11T03:50:40.115Z,1004.71
2018-04-11T03:51:40.160Z,1004.75
2018-04-11T03:52:40.158Z,1004.8
2018-04-11T03:53:40.180Z,1004.83
2018-04-11T03:54:40.199Z,1004.88
2018-04-11T03:55:40.220Z,1004.97
2018-04-11T03:56:40.242Z,1004.98
2018-04-11T03:57:40.262Z,1004.97
2018-04-11T03:58:40.283Z,1004.94
2018-04-11T03:59:40.303Z,1004.89
2018-04-11T04:00:40.326Z,1004.91
2018-04-11T04:01:40.366Z,1004.97
2018-04-11T04:02:40.367Z,1004.96
2018-04-11T04:03:40.388Z,1004.95
2018-04-11T04:04:40.410Z,1004.95
2018-04-11T04:05:40.430Z,1004.89
2018-04-11T04:06:40.452Z,1004.86
2018-04-11T04:07:40.539Z,1004.86
2018-04-11T04:08:40.493Z,1004.9
2018-04-11T04:09:40.516Z,1004.84
2018-04-11T04:10:40.536Z,1004.89
2018-04-11T04:11:40.557Z,1004.95
2018-04-11T04:12:40.577Z,1004.93
2018-04-11T04:13:40.610Z,1004.96
2018-04-11T04:14:40.626Z,1004.98
2018-04-11T04:15:40.647Z,1004.99
2018-04-11T04:16:40.662Z,1004.96
2018-04-11T04:17:40.684Z,1005
2018-04-11T04:18:40.705Z,1005.01
2018-04-11T04:19:40.730Z,1005
2018-04-11T04:21:40.769Z,1004.98
2018-04-11T04:22:40.790Z,1004.98
2018-04-11T04:23:40.811Z,1005.04
2018-04-11T04:24:40.832Z,1005.04
2018-04-11T04:25:40.858Z,1004.99
2018-04-11T04:26:40.875Z,1004.99
2018-04-11T04:27:40.895Z,1005.01
2018-04-11T04:28:40.916Z,1005.01
2018-04-11T04:29:40.938Z,1005.05
2018-04-11T04:30:40.957Z,1005.03
2018-04-11T04:31:40.978Z,1005.05
2018-04-11T04:32:41.000Z,1005.05
2018-04-11T04:33:41.022Z,1005.07
2018-04-11T04:34:41.042Z,1005.09
2018-04-11T04:35:41.063Z,1005.11
2018-04-11T04:37:41.105Z,1005.11
2018-04-11T04:38:41.127Z,1005.12
2018-04-11T04:39:41.147Z,1005.12
2018-04-11T04:40:41.168Z,1005.15
2018-04-11T04:41:41.189Z,1005.18
2018-04-11T04:42:41.212Z,1005.19
2018-04-11T04:43:41.232Z,1005.16
2018-04-11T04:44:41.257Z,1005.18
2018-04-11T04:45:41.274Z,1005.17
2018-04-11T04:46:41.295Z,1005.26
2018-04-11T04:47:41.316Z,1005.29
2018-04-11T04:48:41.337Z,1005.3
2018-04-11T04:49:41.358Z,1005.28
2018-04-11T04:50:41.380Z,1005.26
2018-04-11T04:51:41.405Z,1005.23
2018-04-11T04:53:41.443Z,1005.27
2018-04-11T04:54:41.464Z,1005.25
2018-04-11T04:55:41.485Z,1005.28
2018-04-11T04:56:41.505Z,1005.31
2018-04-11T04:57:41.526Z,1005.35
2018-04-11T04:58:41.547Z,1005.41
2018-04-11T04:59:41.569Z,1005.35
2018-04-11T05:00:41.590Z,1005.39
2018-04-11T05:01:41.611Z,1005.33
2018-04-11T05:02:41.632Z,1005.38
2018-04-11T05:03:41.652Z,1005.4
2018-04-11T05:04:41.674Z,1005.44
2018-04-11T05:05:41.695Z,1005.45
2018-04-11T05:06:41.716Z,1005.41
2018-04-11T05:07:41.778Z,1005.36
2018-04-11T05:09:41.779Z,1005.4
2018-04-11T05:10:41.801Z,1005.41
2018-04-11T05:11:41.822Z,1005.44
2018-04-11T05:12:41.844Z,1005.43
2018-04-11T05:13:41.864Z,1005.43
2018-04-11T05:14:41.884Z,1005.43
2018-04-11T05:15:41.905Z,1005.44
2018-04-11T05:16:41.927Z,1005.47
2018-04-11T05:17:41.948Z,1005.48
2018-04-11T05:18:41.969Z,1005.44
2018-04-11T05:19:41.990Z,1005.43
2018-04-11T05:20:42.017Z,1005.44
2018-04-11T05:21:42.035Z,1005.48
2018-04-11T05:22:42.054Z,1005.48
2018-04-11T05:24:42.099Z,1005.5
2018-04-11T05:25:42.118Z,1005.5
2018-04-11T05:26:42.139Z,1005.55
2018-04-11T05:27:42.160Z,1005.55
2018-04-11T05:28:42.182Z,1005.53
2018-04-11T05:29:42.202Z,1005.49
2018-04-11T05:30:42.224Z,1005.51
2018-04-11T05:31:42.245Z,1005.57
2018-04-11T05:32:42.287Z,1005.56
2018-04-11T05:33:42.287Z,1005.6
2018-04-11T05:34:42.308Z,1005.53
2018-04-11T05:35:42.330Z,1005.55
2018-04-11T05:36:42.350Z,1005.53
2018-04-11T05:37:42.382Z,1005.53
2018-04-11T05:38:42.393Z,1005.54
2018-04-11T05:39:42.415Z,1005.52
2018-04-11T05:40:42.435Z,1005.55
2018-04-11T05:41:42.462Z,1005.57
2018-04-11T05:42:42.478Z,1005.59
2018-04-11T05:43:42.499Z,1005.59
2018-04-11T05:44:42.521Z,1005.62
2018-04-11T05:45:42.542Z,1005.63
2018-04-11T05:46:42.571Z,1005.62
2018-04-11T05:47:42.584Z,1005.63
2018-04-11T05:48:42.606Z,1005.64
2018-04-11T05:49:42.627Z,1005.66
2018-04-11T05:50:42.649Z,1005.65
2018-04-11T05:51:42.670Z,1005.68
2018-04-11T05:52:42.694Z,1005.66
2018-04-11T05:53:42.713Z,1005.68
2018-04-11T05:54:42.734Z,1005.63
2018-04-11T05:56:42.777Z,1005.64
2018-04-11T05:57:42.806Z,1005.62
2018-04-11T05:58:42.824Z,1005.59
2018-04-11T05:59:42.843Z,1005.68
2018-04-11T06:00:42.868Z,1005.66
2018-04-11T06:01:42.887Z,1005.6
2018-04-11T06:02:42.908Z,1005.58
2018-04-11T06:03:42.930Z,1005.65
2018-04-11T06:04:42.951Z,1005.63
2018-04-11T06:05:42.973Z,1005.63
2018-04-11T06:06:42.995Z,1005.65
2018-04-11T06:07:43.017Z,1005.68
2018-04-11T06:08:43.038Z,1005.71
2018-04-11T06:09:43.060Z,1005.71
2018-04-11T06:10:43.083Z,1005.72
2018-04-11T06:12:43.127Z,1005.74
2018-04-11T06:13:43.149Z,1005.73
2018-04-11T06:14:43.174Z,1005.79
2018-04-11T06:15:43.192Z,1006.01
2018-04-11T06:16:43.215Z,1005.86
2018-04-11T06:17:43.237Z,1005.89
2018-04-11T06:18:43.260Z,1005.79
2018-04-11T06:19:43.283Z,1005.8
2018-04-11T06:20:43.304Z,1005.81
2018-04-11T06:21:43.327Z,1005.82
2018-04-11T06:22:43.350Z,1006
2018-04-11T06:23:43.373Z,1006.24
2018-04-11T06:24:43.394Z,1006.09
2018-04-11T06:25:43.417Z,1006.13
2018-04-11T06:26:43.440Z,1005.98
2018-04-11T06:28:43.486Z,1006.55
2018-04-11T06:29:43.508Z,1006.73
2018-04-11T06:30:43.533Z,1006.78
2018-04-11T06:31:43.556Z,1006.77
2018-04-11T06:32:43.580Z,1006.82
2018-04-11T06:33:43.637Z,1007.05
2018-04-11T06:34:43.628Z,1007.09
2018-04-11T06:35:43.652Z,1007.15
2018-04-11T06:36:43.677Z,1007.05
2018-04-11T06:37:43.702Z,1006.98
2018-04-11T06:38:43.726Z,1007.14
2018-04-11T06:39:43.755Z,1007.14
2018-04-11T06:40:43.778Z,1007.19
2018-04-11T06:41:43.808Z,1007.18
2018-04-11T06:42:43.830Z,1007.1
2018-04-11T06:44:43.887Z,1007.23
2018-04-11T06:45:43.909Z,1007.15
2018-04-11T06:46:43.936Z,1007.19
2018-04-11T06:47:43.963Z,1007.13
2018-04-11T06:48:43.989Z,1007.17
2018-04-11T06:49:44.021Z,1007.15
2018-04-11T06:50:44.044Z,1007.15
2018-04-11T06:51:44.072Z,1007.14
2018-04-11T06:52:44.103Z,1007.16
2018-04-11T06:53:44.128Z,1007.18
2018-04-11T06:54:44.156Z,1007.1
2018-04-11T06:55:44.186Z,1007.14
2018-04-11T06:56:44.213Z,1007.07
2018-04-11T06:57:44.242Z,1007.02
2018-04-11T06:59:44.301Z,1006.88
2018-04-11T07:00:44.334Z,1007
2018-04-11T07:01:44.356Z,1007.06
2018-04-11T07:02:44.389Z,1007.07
2018-04-11T07:03:44.414Z,1007.02
2018-04-11T07:04:44.444Z,1006.79
2018-04-11T07:05:44.473Z,1006.97
2018-04-11T07:06:44.506Z,1006.95
2018-04-11T07:07:44.531Z,1006.9
2018-04-11T07:08:44.561Z,1006.88
2018-04-11T07:09:44.591Z,1006.88
2018-04-11T07:10:44.620Z,1006.9
2018-04-11T07:11:44.653Z,1006.86
2018-04-11T07:12:44.680Z,1006.86
2018-04-11T07:13:44.709Z,1006.85
2018-04-11T07:14:44.739Z,1006.77
2018-04-11T07:15:44.770Z,1006.74
2018-04-11T07:16:44.801Z,1006.73
2018-04-11T07:17:44.829Z,1006.74
2018-04-11T07:18:44.858Z,1006.7
2018-04-11T07:19:44.889Z,1006.71
2018-04-11T07:20:44.919Z,1006.69
2018-04-11T07:21:44.949Z,1006.63
2018-04-11T07:22:44.980Z,1006.64
2018-04-11T07:23:45.010Z,1006.61
2018-04-11T07:24:45.042Z,1006.61
2018-04-11T07:25:45.080Z,1006.62
2018-04-11T07:26:45.101Z,1006.63
2018-04-11T07:27:45.132Z,1006.57
2018-04-11T07:28:45.163Z,1006.48
2018-04-11T07:29:45.193Z,1006.58
2018-04-11T07:31:45.254Z,1006.53
2018-04-11T07:32:45.286Z,1006.49
2018-04-11T07:33:45.346Z,1006.53
2018-04-11T07:34:45.347Z,1006.57
2018-04-11T07:35:45.379Z,1006.49
2018-04-11T07:36:45.409Z,1006.53
2018-04-11T07:37:45.440Z,1006.52
2018-04-11T07:38:45.471Z,1006.57
2018-04-11T07:39:45.515Z,1006.54
2018-04-11T07:40:45.532Z,1006.53
2018-04-11T07:41:45.564Z,1006.46
2018-04-11T07:42:45.595Z,1006.48
2018-04-11T07:43:45.627Z,1006.49
2018-04-11T07:44:45.659Z,1006.38
2018-04-11T07:45:45.688Z,1006.35
2018-04-11T07:47:45.755Z,1006.37
2018-04-11T07:48:45.781Z,1006.34
2018-04-11T07:49:45.812Z,1006.39
2018-04-11T07:50:45.844Z,1006.34
2018-04-11T07:51:45.876Z,1006.34
2018-04-11T07:52:45.906Z,1006.3
2018-04-11T07:53:45.939Z,1006.3
2018-04-11T07:54:45.970Z,1006.36
2018-04-11T07:55:46.004Z,1006.36
2018-04-11T07:56:46.031Z,1006.3
2018-04-11T07:57:46.064Z,1006.35
2018-04-11T07:58:46.095Z,1006.34
2018-04-11T07:59:46.125Z,1006.31
2018-04-11T08:00:46.157Z,1006.34
2018-04-11T08:01:46.189Z,1006.35
2018-04-11T08:03:46.252Z,1006.27
2018-04-11T08:04:46.283Z,1006.31
2018-04-11T08:05:46.314Z,1006.4
2018-04-11T08:06:46.346Z,1006.38
2018-04-11T08:07:46.377Z,1006.41
2018-04-11T08:08:46.409Z,1006.33
2018-04-11T08:09:46.441Z,1006.41
2018-04-11T08:10:46.470Z,1006.46
2018-04-11T08:11:46.502Z,1006.44
2018-04-11T08:12:46.543Z,1006.49
2018-04-11T08:13:46.564Z,1006.47
2018-04-11T08:14:46.599Z,1006.41
2018-04-11T08:15:46.628Z,1006.44
2018-04-11T08:16:46.659Z,1006.44
2018-04-11T08:17:46.689Z,1006.36
2018-04-11T08:19:46.752Z,1006.38
2018-04-11T08:20:46.784Z,1006.33
2018-04-11T08:21:46.814Z,1006.28
2018-04-11T08:22:46.849Z,1006.36
2018-04-11T08:23:46.876Z,1006.31
2018-04-11T08:24:46.906Z,1006.33
2018-04-11T08:25:46.938Z,1006.3
2018-04-11T08:26:46.969Z,1006.31
2018-04-11T08:27:47.002Z,1006.33
2018-04-11T08:28:47.031Z,1006.31
2018-04-11T08:29:47.062Z,1006.27
2018-04-11T08:30:47.094Z,1006.3
2018-04-11T08:31:47.124Z,1006.26
2018-04-11T08:32:47.158Z,1006.26
2018-04-11T08:34:47.222Z,1006.27
2018-04-11T08:35:47.248Z,1006.26
2018-04-11T08:36:47.280Z,1006.17
2018-04-11T08:37:47.312Z,1006.33
2018-04-11T08:38:47.344Z,1006.19
2018-04-11T08:39:47.372Z,1006.12
2018-04-11T08:40:47.403Z,1006.1
2018-04-11T08:41:47.434Z,1006.07
2018-04-11T08:42:47.464Z,1005.98
2018-04-11T08:43:47.495Z,1006
2018-04-11T08:44:47.526Z,1005.95
2018-04-11T08:45:47.556Z,1006.07
2018-04-11T08:46:47.586Z,1006.04
2018-04-11T08:47:47.616Z,1006.03
2018-04-11T08:48:47.648Z,1006.04
2018-04-11T08:49:47.678Z,1005.99
2018-04-11T08:50:47.707Z,1006.04
2018-04-11T08:51:47.739Z,1006
2018-04-11T08:52:47.770Z,1005.95
2018-04-11T08:53:47.799Z,1006
2018-04-11T08:54:47.830Z,1006.03
2018-04-11T08:55:47.860Z,1006
2018-04-11T08:56:47.890Z,1005.98
2018-04-11T08:57:47.919Z,1005.93
2018-04-11T08:58:47.950Z,1005.98
2018-04-11T08:59:47.980Z,1005.98
2018-04-11T09:00:48.010Z,1006.04
2018-04-11T09:01:48.045Z,1005.94
2018-04-11T09:02:48.070Z,1005.99
2018-04-11T09:03:48.118Z,1005.99
2018-04-11T09:04:48.130Z,1005.99
2018-04-11T09:06:48.191Z,1006.03
2018-04-11T09:07:48.221Z,1006.02
2018-04-11T09:08:48.250Z,1005.99
2018-04-11T09:09:48.280Z,1006.02
2018-04-11T09:10:48.310Z,1006.01
2018-04-11T09:11:48.341Z,1006.02
2018-04-11T09:12:48.369Z,1005.95
2018-04-11T09:13:48.400Z,1005.98
2018-04-11T09:14:48.431Z,1006.04
2018-04-11T09:15:48.462Z,1006.04
2018-04-11T09:16:48.491Z,1005.96
2018-04-11T09:17:48.522Z,1005.92
2018-04-11T09:18:48.550Z,1005.94
2018-04-11T09:19:48.580Z,1005.92
2018-04-11T09:20:48.621Z,1005.87
2018-04-11T09:22:48.670Z,1005.89
2018-04-11T09:23:48.699Z,1005.86
2018-04-11T09:24:48.730Z,1005.96
2018-04-11T09:25:48.760Z,1005.94
2018-04-11T09:26:48.788Z,1005.85
2018-04-11T09:27:48.818Z,1005.88
2018-04-11T09:28:48.856Z,1005.86
2018-04-11T09:29:48.882Z,1005.91
2018-04-11T09:30:48.907Z,1005.87
2018-04-11T09:31:48.957Z,1005.85
2018-04-11T09:32:48.967Z,1005.98
2018-04-11T09:33:48.998Z,1005.97
2018-04-11T09:34:49.027Z,1005.86
2018-04-11T09:35:49.056Z,1005.93
2018-04-11T09:36:49.089Z,1005.83
2018-04-11T09:38:49.209Z,1005.85
2018-04-11T09:39:49.175Z,1005.9
2018-04-11T09:40:49.204Z,1005.96
2018-04-11T09:41:49.238Z,1005.94
2018-04-11T09:42:49.263Z,1005.95
2018-04-11T09:43:49.292Z,1005.95
2018-04-11T09:44:49.322Z,1005.93
2018-04-11T09:45:49.352Z,1005.89
2018-04-11T09:46:49.381Z,1005.92
2018-04-11T09:47:49.410Z,1005.89
2018-04-11T09:48:49.438Z,1005.86
2018-04-11T09:49:49.468Z,1005.88
2018-04-11T09:50:49.497Z,1005.89
2018-04-11T09:51:49.526Z,1005.89
2018-04-11T09:52:49.554Z,1005.94
2018-04-11T09:54:49.612Z,1005.88
2018-04-11T09:55:49.641Z,1005.9
2018-04-11T09:56:49.670Z,1005.88
2018-04-11T09:57:49.701Z,1005.88
2018-04-11T09:58:49.728Z,1005.84
2018-04-11T09:59:49.757Z,1005.91
2018-04-11T10:00:49.785Z,1005.89
2018-04-11T10:01:49.817Z,1005.87
2018-04-11T10:02:49.843Z,1005.89
2018-04-11T10:03:49.871Z,1005.83
2018-04-11T10:04:49.902Z,1005.8
2018-04-11T10:05:49.929Z,1005.83
2018-04-11T10:06:49.979Z,1005.83
2018-04-11T10:07:49.988Z,1005.8
2018-04-11T10:09:50.044Z,1005.83
2018-04-11T10:10:50.072Z,1005.77
2018-04-11T10:11:50.100Z,1005.84
2018-04-11T10:12:50.129Z,1005.86
2018-04-11T10:13:50.158Z,1005.85
2018-04-11T10:14:50.186Z,1005.88
2018-04-11T10:15:50.215Z,1005.95
2018-04-11T10:16:50.248Z,1005.82
2018-04-11T10:17:50.271Z,1005.81
2018-04-11T10:18:50.300Z,1005.81
2018-04-11T10:19:50.328Z,1005.85
2018-04-11T10:20:50.357Z,1005.85
2018-04-11T10:21:50.385Z,1005.83
2018-04-11T10:22:50.413Z,1005.81
2018-04-11T10:23:50.442Z,1005.76
2018-04-11T10:24:50.492Z,1005.7
2018-04-11T10:25:50.498Z,1005.77
2018-04-11T10:26:50.526Z,1005.72
2018-04-11T10:27:50.554Z,1005.7
2018-04-11T10:28:50.584Z,1005.7
2018-04-11T10:29:50.610Z,1005.73
2018-04-11T10:30:50.637Z,1005.71
2018-04-11T10:31:50.667Z,1005.7
2018-04-11T10:32:50.693Z,1005.79
2018-04-11T10:33:50.722Z,1005.71
2018-04-11T10:34:50.750Z,1005.8
2018-04-11T10:35:50.777Z,1005.72
2018-04-11T10:36:50.804Z,1005.74
2018-04-11T10:37:50.832Z,1005.75
2018-04-11T10:38:50.859Z,1005.78
2018-04-11T10:39:50.887Z,1005.78
2018-04-11T10:41:50.942Z,1005.84
2018-04-11T10:42:50.970Z,1005.77
2018-04-11T10:43:50.997Z,1005.81
2018-04-11T10:44:51.025Z,1005.81
2018-04-11T10:45:51.051Z,1005.77
2018-04-11T10:46:51.079Z,1005.83
2018-04-11T10:47:51.105Z,1005.76
2018-04-11T10:48:51.139Z,1005.78
2018-04-11T10:49:51.164Z,1005.7
2018-04-11T10:50:51.186Z,1005.77
2018-04-11T10:51:51.212Z,1005.68
2018-04-11T10:52:51.251Z,1005.61
2018-04-11T10:53:51.266Z,1005.68
2018-04-11T10:54:51.293Z,1005.61
2018-04-11T10:55:51.320Z,1005.66
2018-04-11T10:57:51.375Z,1005.65
2018-04-11T10:58:51.400Z,1005.62
2018-04-11T10:59:51.426Z,1005.61
2018-04-11T11:00:51.534Z,1005.66
2018-04-11T11:01:51.478Z,1005.86
2018-04-11T11:02:51.505Z,1005.72
2018-04-11T11:03:51.532Z,1005.67
2018-04-11T11:04:51.558Z,1005.66
2018-04-11T11:05:51.585Z,1005.7
2018-04-11T11:06:51.614Z,1005.68
2018-04-11T11:07:51.638Z,1005.73
2018-04-11T11:08:51.665Z,1005.63
2018-04-11T11:09:51.688Z,1005.68
2018-04-11T11:10:51.714Z,1005.64
2018-04-11T11:11:51.741Z,1005.67
2018-04-11T11:13:51.797Z,1005.65
2018-04-11T11:14:51.818Z,1005.62
2018-04-11T11:15:51.845Z,1005.6
2018-04-11T11:16:51.870Z,1005.71
2018-04-11T11:17:51.901Z,1005.69
2018-04-11T11:18:51.922Z,1005.68
2018-04-11T11:19:51.949Z,1005.62
2018-04-11T11:20:51.974Z,1005.61
2018-04-11T11:21:52.000Z,1005.74
2018-04-11T11:22:52.047Z,1005.7
2018-04-11T11:23:52.051Z,1005.67
2018-04-11T11:24:52.077Z,1005.66
2018-04-11T11:25:52.104Z,1005.76
2018-04-11T11:26:52.129Z,1005.71
2018-04-11T11:27:52.154Z,1005.7
2018-04-11T11:29:52.206Z,1005.67
2018-04-11T11:30:52.232Z,1005.72
2018-04-11T11:31:52.257Z,1005.66
2018-04-11T11:32:52.283Z,1005.75
2018-04-11T11:33:52.309Z,1005.7
2018-04-11T11:34:52.334Z,1005.74
2018-04-11T11:35:52.359Z,1005.73
2018-04-11T11:36:52.384Z,1005.65
2018-04-11T11:37:52.410Z,1005.67
2018-04-11T11:38:52.435Z,1005.63
2018-04-11T11:39:52.461Z,1005.8
2018-04-11T11:40:52.487Z,1005.63
2018-04-11T11:41:52.514Z,1005.61
2018-04-11T11:42:52.538Z,1005.63
2018-04-11T11:44:52.591Z,1005.62
2018-04-11T11:45:52.616Z,1005.63
2018-04-11T11:46:52.640Z,1005.64
2018-04-11T11:47:52.665Z,1005.62
2018-04-11T11:48:52.691Z,1005.79
2018-04-11T11:49:52.715Z,1005.66
2018-04-11T11:50:52.741Z,1005.65
2018-04-11T11:51:52.769Z,1005.59
2018-04-11T11:52:52.791Z,1005.59
2018-04-11T11:53:52.817Z,1005.58
2018-04-11T11:54:52.843Z,1005.58
2018-04-11T11:55:52.869Z,1005.58
2018-04-11T11:56:52.893Z,1005.64
2018-04-11T11:57:52.920Z,1005.59
2018-04-11T11:58:52.944Z,1005.55
2018-04-11T11:59:52.972Z,1005.58
2018-04-11T12:00:52.994Z,1005.49
2018-04-11T12:01:53.028Z,1005.46
2018-04-11T12:02:53.048Z,1005.54
2018-04-11T12:03:53.070Z,1005.45
2018-04-11T12:04:53.114Z,1005.5
2018-04-11T12:05:53.124Z,1005.51
2018-04-11T12:06:53.148Z,1005.52
2018-04-11T12:07:53.171Z,1005.54
2018-04-11T12:08:53.196Z,1005.54
2018-04-11T12:09:53.221Z,1005.56
2018-04-11T12:10:53.272Z,1005.54
2018-04-11T12:11:53.276Z,1005.53
2018-04-11T12:12:53.297Z,1005.5
2018-04-11T12:13:53.325Z,1005.45
2018-04-11T12:14:53.347Z,1005.45
2018-04-11T12:16:53.401Z,1005.5
2018-04-11T12:17:53.422Z,1005.41
2018-04-11T12:18:53.448Z,1005.43
2018-04-11T12:19:53.472Z,1005.44
2018-04-11T12:20:53.498Z,1005.4
2018-04-11T12:21:53.524Z,1005.43
2018-04-11T12:22:53.548Z,1005.44
2018-04-11T12:23:53.573Z,1005.39
2018-04-11T12:24:53.599Z,1005.42
2018-04-11T12:25:53.627Z,1005.39
2018-04-11T12:26:53.649Z,1005.4
2018-04-11T12:27:53.674Z,1005.34
2018-04-11T12:28:53.700Z,1005.38
2018-04-11T12:29:53.724Z,1005.45
2018-04-11T12:30:53.750Z,1005.3
2018-04-11T12:32:53.801Z,1005.31
2018-04-11T12:33:53.825Z,1005.38
2018-04-11T12:34:53.849Z,1005.37
2018-04-11T12:35:53.880Z,1005.35
2018-04-11T12:36:53.904Z,1005.38
2018-04-11T12:37:53.928Z,1005.32
2018-04-11T12:38:53.951Z,1005.33
2018-04-11T12:39:53.976Z,1005.28
2018-04-11T12:40:54.001Z,1005.32
2018-04-11T12:41:54.027Z,1005.22
2018-04-11T12:42:54.052Z,1005.29
2018-04-11T12:43:54.077Z,1005.18
2018-04-11T12:44:54.101Z,1005.27
2018-04-11T12:45:54.127Z,1005.33
2018-04-11T12:46:54.155Z,1005.26
2018-04-11T12:48:54.202Z,1005.3
2018-04-11T12:49:54.227Z,1005.3